createdAt,value
2017-08-08T00:01:57.827Z,18.90
2017-08-08T00:04:26.116Z,18.90
2017-08-08T00:06:54.356Z,19.00
2017-08-08T00:09:22.670Z,19.00
2017-08-08T00:11:50.915Z,19.00
2017-08-08T00:14:19.165Z,18.90
2017-08-08T00:16:47.593Z,18.90
2017-08-08T00:19:15.845Z,18.80
2017-08-08T00:21:44.094Z,18.70
2017-08-08T00:24:12.352Z,18.60
2017-08-08T00:26:40.978Z,18.50
2017-08-08T00:29:09.214Z,18.50
2017-08-08T00:31:37.864Z,18.60
2017-08-08T00:34:06.109Z,18.60
2017-08-08T00:36:34.369Z,18.60
2017-08-08T00:39:02.646Z,18.50
2017-08-08T00:41:30.893Z,18.40
2017-08-08T00:43:59.540Z,18.40
2017-08-08T00:46:27.808Z,18.40
2017-08-08T00:48:56.037Z,18.40
2017-08-08T00:51:24.292Z,18.30
2017-08-08T00:53:52.586Z,18.30
2017-08-08T00:56:21.221Z,18.30
2017-08-08T00:58:49.485Z,18.30
2017-08-08T01:01:17.755Z,18.30
2017-08-08T01:03:46.013Z,18.10
2017-08-08T01:06:14.267Z,18.10
2017-08-08T01:08:42.568Z,18.10
2017-08-08T01:11:10.814Z,18.00
2017-08-08T01:13:39.449Z,17.80
2017-08-08T01:16:07.753Z,17.80
2017-08-08T01:18:36.161Z,17.80
2017-08-08T01:21:04.914Z,17.90
2017-08-08T01:23:33.172Z,17.90
2017-08-08T01:26:01.403Z,17.80
2017-08-08T01:28:30.047Z,17.80
2017-08-08T01:30:58.312Z,17.80
2017-08-08T01:33:26.560Z,17.70
2017-08-08T01:35:55.084Z,17.70
2017-08-08T01:38:23.373Z,17.70
2017-08-08T01:40:52.576Z,17.70
2017-08-08T01:43:21.015Z,17.60
2017-08-08T01:45:49.280Z,17.60
2017-08-08T01:48:17.512Z,17.50
2017-08-08T01:50:46.145Z,17.40
2017-08-08T01:53:14.421Z,17.40
2017-08-08T01:55:42.929Z,17.50
2017-08-08T01:58:11.185Z,17.40
2017-08-08T02:00:39.451Z,17.50
2017-08-08T02:03:07.699Z,17.50
2017-08-08T02:05:35.929Z,17.40
2017-08-08T02:08:04.192Z,17.30
2017-08-08T02:10:32.440Z,17.30
2017-08-08T02:13:00.898Z,17.30
2017-08-08T02:15:29.345Z,17.30
2017-08-08T02:17:57.601Z,17.10
2017-08-08T02:20:25.852Z,17.10
2017-08-08T02:22:54.870Z,17.10
2017-08-08T02:25:23.127Z,17.10
2017-08-08T02:27:51.360Z,17.10
2017-08-08T02:30:19.731Z,17.00
2017-08-08T02:32:48.192Z,17.10
2017-08-08T02:35:16.463Z,17.20
2017-08-08T02:37:44.749Z,17.10
2017-08-08T02:40:13.001Z,17.10
2017-08-08T02:42:41.249Z,17.10
2017-08-08T02:45:09.531Z,17.10
2017-08-08T02:47:37.989Z,17.10
2017-08-08T02:50:06.625Z,17.10
2017-08-08T02:52:34.908Z,17.10
2017-08-08T02:55:03.153Z,17.00
2017-08-08T02:57:31.387Z,17.00
2017-08-08T02:59:59.673Z,17.00
2017-08-08T03:02:28.308Z,16.90
2017-08-08T03:04:56.580Z,16.90
2017-08-08T03:07:24.838Z,16.90
2017-08-08T03:09:53.919Z,16.90
2017-08-08T03:12:22.151Z,16.80
2017-08-08T03:14:51.324Z,16.80
2017-08-08T03:17:19.582Z,16.80
2017-08-08T03:19:47.841Z,16.60
2017-08-08T03:22:16.107Z,16.70
2017-08-08T03:24:44.364Z,16.70
2017-08-08T03:27:12.605Z,16.70
2017-08-08T03:29:41.092Z,16.60
2017-08-08T03:32:09.351Z,16.60
2017-08-08T03:34:37.607Z,16.60
2017-08-08T03:37:05.901Z,16.50
2017-08-08T03:39:34.141Z,16.60
2017-08-08T03:42:03.206Z,16.50
2017-08-08T03:44:31.476Z,16.60
2017-08-08T03:46:59.726Z,16.60
2017-08-08T03:49:27.984Z,16.60
2017-08-08T03:51:56.329Z,16.60
2017-08-08T03:54:25.502Z,16.60
2017-08-08T03:56:53.785Z,16.60
2017-08-08T03:59:22.070Z,16.50
2017-08-08T04:01:50.469Z,16.50
2017-08-08T04:04:19.191Z,16.50
2017-08-08T04:06:47.479Z,16.50
2017-08-08T04:09:16.704Z,16.60
2017-08-08T04:11:45.147Z,16.70
2017-08-08T04:14:13.476Z,16.80
2017-08-08T04:16:42.121Z,16.90
2017-08-08T04:19:10.360Z,16.90
2017-08-08T04:21:39.518Z,16.90
2017-08-08T04:24:07.753Z,16.90
2017-08-08T04:26:36.029Z,16.90
2017-08-08T04:29:04.345Z,16.90
2017-08-08T04:31:32.584Z,17.00
2017-08-08T04:34:00.836Z,16.90
2017-08-08T04:36:29.108Z,16.80
2017-08-08T04:38:57.787Z,16.80
2017-08-08T04:41:26.909Z,17.00
2017-08-08T04:43:55.205Z,17.00
2017-08-08T04:46:23.447Z,16.90
2017-08-08T04:48:51.688Z,17.00
2017-08-08T04:51:19.970Z,17.00
2017-08-08T04:53:48.603Z,16.80
2017-08-08T04:56:16.854Z,16.80
2017-08-08T04:58:45.131Z,16.70
2017-08-08T05:01:13.386Z,16.70
2017-08-08T05:03:41.878Z,16.70
2017-08-08T05:06:10.532Z,16.80
2017-08-08T05:08:38.763Z,16.80
2017-08-08T05:11:07.364Z,16.80
2017-08-08T05:13:35.618Z,16.80
2017-08-08T05:16:03.863Z,17.00
2017-08-08T05:18:32.179Z,17.10
2017-08-08T05:21:00.444Z,17.00
2017-08-08T05:23:28.687Z,17.10
2017-08-08T05:25:57.343Z,17.00
2017-08-08T05:28:25.792Z,17.00
2017-08-08T05:30:54.878Z,17.00
2017-08-08T05:33:23.118Z,17.10
2017-08-08T05:35:51.379Z,17.30
2017-08-08T05:38:19.621Z,17.60
2017-08-08T05:40:47.864Z,17.60
2017-08-08T05:43:16.179Z,17.80
2017-08-08T05:45:44.460Z,18.00
2017-08-08T05:48:12.747Z,18.10
2017-08-08T05:50:41.243Z,18.30
2017-08-08T05:53:09.511Z,18.50
2017-08-08T05:55:37.777Z,18.70
2017-08-08T05:58:06.115Z,18.70
2017-08-08T06:00:34.366Z,18.90
2017-08-08T06:03:02.647Z,19.00
2017-08-08T06:05:30.933Z,19.10
2017-08-08T06:07:59.176Z,19.30
2017-08-08T06:10:27.453Z,19.40
2017-08-08T06:12:55.704Z,19.50
2017-08-08T06:15:24.191Z,19.60
2017-08-08T06:17:52.440Z,19.80
2017-08-08T06:20:20.679Z,19.80
2017-08-08T06:22:49.329Z,20.10
2017-08-08T06:25:17.585Z,20.10
2017-08-08T06:27:45.881Z,20.30
2017-08-08T06:30:15.325Z,20.60
2017-08-08T06:32:44.317Z,21.10
2017-08-08T06:35:12.763Z,21.10
2017-08-08T06:37:41.015Z,21.30
2017-08-08T06:40:09.468Z,21.50
2017-08-08T06:42:37.794Z,21.60
2017-08-08T06:45:06.310Z,21.70
2017-08-08T06:47:35.014Z,21.90
2017-08-08T06:50:03.502Z,21.90
2017-08-08T06:52:31.733Z,21.90
2017-08-08T06:55:00.032Z,22.00
2017-08-08T06:57:28.655Z,21.80
2017-08-08T06:59:56.892Z,21.80
2017-08-08T07:02:25.171Z,21.50
2017-08-08T07:04:53.414Z,21.60
2017-08-08T07:07:21.679Z,22.00
2017-08-08T07:09:49.939Z,22.20
2017-08-08T07:12:18.174Z,22.40
2017-08-08T07:14:46.851Z,22.90
2017-08-08T07:17:15.489Z,23.10
2017-08-08T07:19:43.725Z,23.10
2017-08-08T07:22:11.989Z,23.10
2017-08-08T07:24:40.616Z,23.30
2017-08-08T07:27:08.901Z,23.30
2017-08-08T07:29:37.169Z,23.20
2017-08-08T07:32:05.452Z,23.10
2017-08-08T07:34:35.238Z,22.70
2017-08-08T07:37:03.839Z,22.60
2017-08-08T07:39:33.180Z,22.70
2017-08-08T07:42:01.630Z,22.90
2017-08-08T07:44:29.893Z,23.40
2017-08-08T07:46:58.199Z,23.20
2017-08-08T07:49:26.494Z,23.20
2017-08-08T07:51:55.581Z,23.50
2017-08-08T07:54:23.857Z,23.70
2017-08-08T07:56:52.590Z,23.70
2017-08-08T07:59:20.890Z,24.00
2017-08-08T08:01:49.376Z,23.90
2017-08-08T08:04:17.619Z,23.80
2017-08-08T08:06:45.874Z,23.90
2017-08-08T08:09:14.180Z,24.10
2017-08-08T08:11:42.408Z,24.60
2017-08-08T08:14:10.660Z,24.60
2017-08-08T08:16:38.921Z,24.60
2017-08-08T08:19:07.150Z,24.50
2017-08-08T08:21:35.393Z,24.30
2017-08-08T08:24:03.675Z,24.20
2017-08-08T08:26:31.940Z,23.80
2017-08-08T08:29:00.193Z,23.90
2017-08-08T08:31:28.475Z,24.30
2017-08-08T08:33:56.970Z,24.50
2017-08-08T08:36:25.604Z,24.10
2017-08-08T08:38:53.864Z,23.70
2017-08-08T08:41:22.512Z,24.40
2017-08-08T08:43:50.827Z,24.40
2017-08-08T08:46:19.066Z,24.40
2017-08-08T08:48:47.338Z,24.40
2017-08-08T08:51:15.609Z,24.10
2017-08-08T08:53:44.076Z,24.50
2017-08-08T08:56:12.577Z,24.80
2017-08-08T08:58:41.818Z,24.90
2017-08-08T09:01:10.514Z,24.70
2017-08-08T09:03:39.132Z,24.90
2017-08-08T09:06:07.421Z,24.90
2017-08-08T09:08:35.664Z,25.00
2017-08-08T09:11:03.923Z,25.00
2017-08-08T09:13:32.584Z,25.00
2017-08-08T09:16:01.052Z,25.00
2017-08-08T09:18:29.358Z,25.40
2017-08-08T09:20:57.596Z,25.60
2017-08-08T09:23:25.891Z,25.50
2017-08-08T09:25:54.174Z,25.50
2017-08-08T09:28:22.411Z,25.60
2017-08-08T09:30:51.565Z,26.00
2017-08-08T09:33:19.855Z,25.70
2017-08-08T09:35:48.109Z,26.10
2017-08-08T09:38:16.389Z,26.10
2017-08-08T09:40:45.072Z,26.50
2017-08-08T09:43:13.299Z,26.60
2017-08-08T09:45:41.568Z,26.10
2017-08-08T09:48:09.845Z,25.60
2017-08-08T09:50:38.080Z,25.40
2017-08-08T09:53:06.332Z,25.70
2017-08-08T09:55:34.636Z,25.60
2017-08-08T09:58:02.892Z,25.50
2017-08-08T10:00:31.177Z,25.70
2017-08-08T10:02:59.873Z,26.50
2017-08-08T10:05:28.520Z,26.00
2017-08-08T10:07:57.429Z,26.00
2017-08-08T10:10:25.987Z,26.10
2017-08-08T10:12:55.245Z,26.60
2017-08-08T10:15:23.633Z,26.90
2017-08-08T10:17:51.943Z,27.00
2017-08-08T10:20:20.185Z,27.20
2017-08-08T10:22:48.431Z,27.40
2017-08-08T10:25:17.094Z,27.00
2017-08-08T10:27:46.725Z,27.00
2017-08-08T10:30:16.377Z,27.10
2017-08-08T10:32:45.598Z,27.10
2017-08-08T10:35:14.326Z,27.50
2017-08-08T10:37:43.298Z,27.80
2017-08-08T10:40:11.757Z,28.10
2017-08-08T10:42:40.012Z,28.50
2017-08-08T10:45:08.286Z,28.70
2017-08-08T10:47:36.528Z,28.70
2017-08-08T10:50:04.759Z,28.80
2017-08-08T10:52:33.028Z,28.60
2017-08-08T10:55:01.507Z,28.50
2017-08-08T10:57:29.753Z,28.50
2017-08-08T10:59:58.035Z,28.50
2017-08-08T11:02:26.276Z,28.70
2017-08-08T11:04:54.513Z,28.30
2017-08-08T11:07:22.896Z,28.10
2017-08-08T11:09:51.108Z,28.10
2017-08-08T11:12:19.652Z,28.20
2017-08-08T11:14:49.919Z,28.40
2017-08-08T11:17:18.238Z,28.40
2017-08-08T11:19:46.500Z,28.40
2017-08-08T11:22:14.803Z,28.50
2017-08-08T11:24:43.035Z,28.20
2017-08-08T11:27:11.300Z,27.90
2017-08-08T11:29:39.788Z,27.90
2017-08-08T11:32:08.022Z,28.10
2017-08-08T11:34:36.276Z,28.40
2017-08-08T11:37:04.543Z,28.10
2017-08-08T11:39:33.673Z,27.80
2017-08-08T11:42:01.903Z,27.40
2017-08-08T11:44:30.410Z,27.40
2017-08-08T11:46:58.678Z,27.70
2017-08-08T11:49:26.970Z,28.10
2017-08-08T11:51:55.257Z,28.10
2017-08-08T11:54:23.493Z,27.70
2017-08-08T11:56:51.761Z,27.40
2017-08-08T11:59:20.051Z,27.60
2017-08-08T12:01:48.300Z,27.40
2017-08-08T12:04:17.013Z,27.30
2017-08-08T12:06:45.264Z,27.20
2017-08-08T12:09:13.503Z,27.20
2017-08-08T12:11:41.742Z,27.20
2017-08-08T12:14:10.002Z,27.10
2017-08-08T12:16:38.249Z,27.30
2017-08-08T12:19:06.592Z,27.50
2017-08-08T12:21:34.828Z,27.70
2017-08-08T12:24:03.067Z,27.60
2017-08-08T12:26:31.355Z,27.60
2017-08-08T12:28:59.666Z,27.80
2017-08-08T12:31:27.942Z,27.90
2017-08-08T12:33:56.272Z,27.60
2017-08-08T12:36:24.531Z,27.50
2017-08-08T12:38:52.844Z,27.80
2017-08-08T12:41:21.343Z,28.00
2017-08-08T12:43:49.593Z,28.30
2017-08-08T12:46:17.868Z,28.50
2017-08-08T12:48:46.760Z,28.60
2017-08-08T12:51:15.000Z,28.60
2017-08-08T12:53:43.249Z,28.60
2017-08-08T12:56:11.529Z,28.50
2017-08-08T12:58:39.764Z,28.70
2017-08-08T13:01:08.013Z,28.90
2017-08-08T13:03:36.322Z,28.70
2017-08-08T13:06:04.580Z,28.80
2017-08-08T13:08:32.827Z,28.80
2017-08-08T13:11:01.117Z,28.70
2017-08-08T13:13:29.364Z,28.90
2017-08-08T13:15:57.608Z,29.00
2017-08-08T13:18:25.909Z,29.00
2017-08-08T13:20:54.155Z,29.00
2017-08-08T13:23:22.635Z,29.00
2017-08-08T13:25:50.918Z,29.00
2017-08-08T13:28:19.233Z,29.10
2017-08-08T13:30:47.491Z,29.30
2017-08-08T13:33:15.784Z,29.40
2017-08-08T13:35:44.037Z,29.20
2017-08-08T13:38:12.446Z,29.00
2017-08-08T13:40:40.733Z,28.90
2017-08-08T13:43:09.533Z,29.10
2017-08-08T13:45:38.206Z,29.20
2017-08-08T13:48:06.522Z,29.10
2017-08-08T13:50:34.773Z,28.90
2017-08-08T13:53:03.037Z,28.90
2017-08-08T13:55:31.300Z,29.00
2017-08-08T13:57:59.536Z,29.00
2017-08-08T14:00:27.813Z,29.00
2017-08-08T14:02:56.088Z,28.90
2017-08-08T14:05:24.368Z,28.70
2017-08-08T14:07:52.720Z,28.50
2017-08-08T14:10:21.054Z,28.60
2017-08-08T14:12:49.300Z,28.70
2017-08-08T14:15:17.575Z,28.80
2017-08-08T14:17:45.824Z,28.70
2017-08-08T14:20:14.501Z,28.60
2017-08-08T14:22:43.401Z,28.50
2017-08-08T14:25:12.074Z,28.50
2017-08-08T14:27:40.366Z,28.50
2017-08-08T14:30:08.631Z,28.40
2017-08-08T14:32:36.872Z,28.30
2017-08-08T14:35:05.209Z,28.30
2017-08-08T14:37:33.495Z,28.30
2017-08-08T14:40:01.782Z,28.40
2017-08-08T14:42:30.116Z,28.40
2017-08-08T14:44:58.383Z,28.20
2017-08-08T14:47:27.035Z,28.20
2017-08-08T14:49:55.309Z,28.20
2017-08-08T14:52:23.575Z,28.30
2017-08-08T14:54:51.839Z,28.20
2017-08-08T14:57:20.144Z,28.20
2017-08-08T14:59:48.420Z,28.30
2017-08-08T15:02:16.701Z,28.40
2017-08-08T15:04:44.975Z,28.40
2017-08-08T15:07:13.224Z,28.30
2017-08-08T15:09:41.896Z,28.30
2017-08-08T15:12:10.161Z,28.00
2017-08-08T15:14:38.408Z,27.80
2017-08-08T15:17:07.186Z,27.70
2017-08-08T15:19:35.725Z,27.70
2017-08-08T15:22:04.019Z,27.90
2017-08-08T15:24:32.309Z,28.00
2017-08-08T15:27:00.575Z,28.00
2017-08-08T15:29:28.950Z,28.10
2017-08-08T15:31:57.208Z,28.10
2017-08-08T15:34:25.563Z,27.90
2017-08-08T15:36:53.800Z,27.80
2017-08-08T15:39:22.242Z,27.80
2017-08-08T15:41:50.765Z,27.80
2017-08-08T15:44:19.029Z,27.70
2017-08-08T15:46:47.296Z,27.70
2017-08-08T15:49:15.581Z,27.60
2017-08-08T15:51:43.815Z,27.50
2017-08-08T15:54:12.297Z,27.40
2017-08-08T15:56:40.582Z,27.30
2017-08-08T15:59:08.855Z,27.20
2017-08-08T16:01:37.125Z,27.20
2017-08-08T16:04:05.642Z,27.20
2017-08-08T16:06:33.880Z,27.30
2017-08-08T16:09:02.145Z,27.20
2017-08-08T16:11:30.505Z,27.30
2017-08-08T16:13:58.852Z,27.30
2017-08-08T16:16:27.178Z,27.30
2017-08-08T16:18:55.529Z,27.40
2017-08-08T16:21:23.784Z,27.50
2017-08-08T16:23:53.619Z,27.50
2017-08-08T16:26:21.962Z,27.50
2017-08-08T16:28:50.449Z,27.40
2017-08-08T16:31:18.904Z,27.30
2017-08-08T16:33:47.200Z,27.30
2017-08-08T16:36:15.489Z,27.30
2017-08-08T16:38:43.712Z,27.30
2017-08-08T16:41:12.980Z,27.30
2017-08-08T16:43:41.292Z,27.30
2017-08-08T16:46:09.601Z,27.30
2017-08-08T16:48:38.360Z,27.20
2017-08-08T16:51:06.605Z,27.10
2017-08-08T16:53:35.121Z,27.10
2017-08-08T16:56:03.465Z,27.10
2017-08-08T16:58:31.761Z,27.10
2017-08-08T17:01:00.399Z,26.90
2017-08-08T17:03:28.734Z,26.90
2017-08-08T17:05:57.123Z,26.80
2017-08-08T17:08:25.410Z,26.80
2017-08-08T17:10:53.791Z,26.70
2017-08-08T17:13:22.058Z,26.70
2017-08-08T17:15:50.944Z,26.80
2017-08-08T17:18:19.238Z,26.70
2017-08-08T17:20:47.492Z,26.70
2017-08-08T17:23:15.852Z,26.60
2017-08-08T17:25:44.129Z,26.50
2017-08-08T17:28:12.476Z,26.40
2017-08-08T17:30:41.556Z,26.30
2017-08-08T17:33:09.897Z,26.30
2017-08-08T17:35:38.153Z,26.30
2017-08-08T17:38:24.081Z,26.20
2017-08-08T17:40:56.843Z,26.20
2017-08-08T17:43:25.129Z,26.10
2017-08-08T17:45:53.541Z,26.10
2017-08-08T17:48:22.248Z,26.00
2017-08-08T17:50:50.672Z,26.00
2017-08-08T17:53:18.986Z,25.90
2017-08-08T17:55:47.308Z,25.90
2017-08-08T17:58:15.685Z,25.80
2017-08-08T18:00:43.970Z,25.80
2017-08-08T18:03:12.292Z,25.80
2017-08-08T18:05:40.873Z,25.80
2017-08-08T18:08:09.254Z,25.80
2017-08-08T18:10:37.616Z,25.80
2017-08-08T18:13:05.903Z,25.80
2017-08-08T18:15:34.345Z,25.70
2017-08-08T18:18:02.632Z,25.70
2017-08-08T18:20:30.944Z,25.60
2017-08-08T18:22:59.311Z,25.60
2017-08-08T18:25:27.627Z,25.50
2017-08-08T18:27:56.173Z,25.50
2017-08-08T18:30:24.587Z,25.40
2017-08-08T18:32:53.237Z,25.40
2017-08-08T18:35:21.552Z,25.40
2017-08-08T18:37:49.950Z,25.40
2017-08-08T18:40:18.282Z,25.40
2017-08-08T18:42:46.555Z,25.30
2017-08-08T18:45:15.043Z,25.20
2017-08-08T18:47:43.291Z,25.20
2017-08-08T18:50:11.564Z,25.20
2017-08-08T18:52:39.841Z,25.20
2017-08-08T18:55:08.103Z,25.20
2017-08-08T18:57:37.164Z,25.20
2017-08-08T19:00:05.896Z,25.10
2017-08-08T19:02:34.247Z,25.10
2017-08-08T19:05:02.805Z,25.00
2017-08-08T19:07:31.057Z,24.90
2017-08-08T19:09:59.304Z,24.80
2017-08-08T19:12:27.548Z,24.70
2017-08-08T19:14:55.907Z,24.70
2017-08-08T19:17:24.213Z,24.70
2017-08-08T19:19:52.694Z,24.70
2017-08-08T19:22:20.965Z,24.70
2017-08-08T19:24:49.208Z,24.60
2017-08-08T19:27:17.471Z,24.50
2017-08-08T19:29:45.790Z,24.50
2017-08-08T19:32:14.091Z,24.40
2017-08-08T19:34:42.348Z,24.20
2017-08-08T19:37:12.357Z,24.10
2017-08-08T19:39:40.685Z,24.00
2017-08-08T19:42:08.972Z,23.80
2017-08-08T19:44:37.324Z,23.70
2017-08-08T19:47:06.591Z,23.70
2017-08-08T19:49:34.987Z,23.60
2017-08-08T19:52:03.347Z,23.50
2017-08-08T19:54:31.808Z,23.50
2017-08-08T19:57:00.463Z,23.40
2017-08-08T19:59:28.973Z,23.40
2017-08-08T20:01:57.614Z,23.30
2017-08-08T20:04:25.869Z,23.30
2017-08-08T20:06:54.289Z,23.30
2017-08-08T20:09:22.581Z,23.30
2017-08-08T20:11:51.219Z,23.30
2017-08-08T20:14:19.628Z,23.30
2017-08-08T20:16:47.921Z,23.30
2017-08-08T20:19:16.180Z,23.30
2017-08-08T20:21:44.558Z,23.30
2017-08-08T20:24:12.793Z,23.30
2017-08-08T20:26:41.035Z,23.30
2017-08-08T20:29:09.342Z,23.20
2017-08-08T20:31:37.567Z,23.10
2017-08-08T20:34:05.973Z,23.20
2017-08-08T20:36:34.255Z,23.10
2017-08-08T20:39:02.549Z,23.10
2017-08-08T20:41:30.801Z,23.10
2017-08-08T20:43:59.105Z,23.10
2017-08-08T20:46:27.845Z,23.10
2017-08-08T20:48:56.153Z,23.10
2017-08-08T20:51:24.588Z,23.20
2017-08-08T20:53:53.053Z,23.30
2017-08-08T20:56:21.314Z,23.30
2017-08-08T20:58:49.604Z,23.20
2017-08-08T21:01:17.859Z,23.20
2017-08-08T21:03:46.106Z,23.20
2017-08-08T21:06:14.381Z,23.30
2017-08-08T21:08:42.681Z,23.20
2017-08-08T21:11:10.925Z,23.20
2017-08-08T21:13:39.208Z,23.20
2017-08-08T21:16:07.472Z,23.20
2017-08-08T21:18:36.330Z,23.10
2017-08-08T21:21:04.808Z,23.10
2017-08-08T21:23:33.292Z,23.10
2017-08-08T21:26:01.548Z,23.10
2017-08-08T21:28:29.827Z,23.10
2017-08-08T21:30:58.062Z,23.10
2017-08-08T21:33:26.712Z,22.80
2017-08-08T21:35:55.023Z,22.80
2017-08-08T21:38:23.268Z,22.60
2017-08-08T21:40:51.544Z,22.50
2017-08-08T21:43:19.870Z,22.50
2017-08-08T21:45:48.191Z,22.50
2017-08-08T21:48:16.984Z,22.50
2017-08-08T21:50:45.508Z,22.50
2017-08-08T21:53:13.752Z,22.40
2017-08-08T21:55:41.999Z,22.40
2017-08-08T21:58:10.270Z,22.40
2017-08-08T22:00:38.915Z,22.40
2017-08-08T22:03:07.258Z,22.40
2017-08-08T22:05:35.549Z,22.40
2017-08-08T22:08:03.773Z,22.30
2017-08-08T22:10:32.014Z,22.20
2017-08-08T22:13:00.674Z,22.50
2017-08-08T22:15:28.912Z,22.50
2017-08-08T22:17:57.428Z,22.50
2017-08-08T22:20:25.994Z,22.40
2017-08-08T22:22:54.227Z,22.30
2017-08-08T22:25:22.484Z,22.30
2017-08-08T22:27:51.424Z,22.40
2017-08-08T22:30:19.660Z,22.40
2017-08-08T22:32:48.012Z,22.60
2017-08-08T22:35:16.606Z,22.60
2017-08-08T22:37:45.251Z,22.60
2017-08-08T22:40:13.824Z,22.60
2017-08-08T22:42:42.108Z,22.60
2017-08-08T22:45:10.401Z,22.60
2017-08-08T22:47:39.455Z,22.70
2017-08-08T22:50:07.751Z,22.70
2017-08-08T22:52:35.990Z,22.60
2017-08-08T22:55:04.241Z,22.60
2017-08-08T22:57:32.501Z,22.50
2017-08-08T23:00:00.735Z,22.60
2017-08-08T23:02:28.987Z,22.60
2017-08-08T23:04:57.306Z,22.60
2017-08-08T23:07:25.549Z,22.60
2017-08-08T23:09:53.801Z,22.60
2017-08-08T23:12:22.121Z,22.60
2017-08-08T23:14:50.394Z,22.50
2017-08-08T23:17:18.642Z,22.50
2017-08-08T23:19:47.551Z,22.40
2017-08-08T23:22:15.805Z,22.50
2017-08-08T23:24:44.441Z,22.40
2017-08-08T23:27:12.712Z,22.40
2017-08-08T23:29:40.950Z,22.40
2017-08-08T23:32:09.577Z,22.50
2017-08-08T23:34:37.874Z,22.40
2017-08-08T23:37:06.115Z,22.40
2017-08-08T23:39:34.352Z,22.40
2017-08-08T23:42:02.636Z,22.50
2017-08-08T23:44:30.880Z,22.60
2017-08-08T23:46:59.128Z,22.70
2017-08-08T23:49:27.415Z,22.60
2017-08-08T23:51:55.672Z,22.60
2017-08-08T23:54:23.960Z,22.60
2017-08-08T23:56:53.323Z,22.60
2017-08-08T23:59:21.558Z,22.60
